Time;durP1;ratioP1;P1;durP2;ratioP2;P2;SDS_P1;SDS_P2;PMS_P1;PMS_P2;Temp;Humidity;BMP_temperature;BMP_pressure;BME280_temperature;BME280_humidity;BME280_pressure;Samples;Min_cycle;Max_cycle;Signal;HPM_P1;HPM_P2
2022/07/15 00:01:49;;;;;;;6.97;1.60;;;;;;;18.98;53.67;101334.88;4929825;28;121900;-81
2022/07/15 00:04:14;;;;;;;8.02;1.60;;;;;;;19.02;54.65;101336.16;4935932;28;121882;-81
2022/07/15 00:06:40;;;;;;;7.65;1.25;;;;;;;19.06;54.02;101335.16;4927725;28;119873;-81
2022/07/15 00:09:06;;;;;;;9.02;1.33;;;;;;;19.10;53.98;101333.69;4913317;28;121295;-81
2022/07/15 00:11:32;;;;;;;4.80;1.10;;;;;;;19.11;54.01;101329.66;4938593;28;119593;-81
2022/07/15 00:13:57;;;;;;;6.15;1.20;;;;;;;19.11;53.78;101328.88;4930722;28;122200;-80
2022/07/15 00:16:23;;;;;;;7.10;1.50;;;;;;;19.01;53.89;101315.19;4932593;28;122691;-81
2022/07/15 00:18:48;;;;;;;5.60;1.27;;;;;;;18.98;54.10;101318.94;4910693;28;122139;-81
2022/07/15 00:21:14;;;;;;;5.23;1.37;;;;;;;19.02;53.86;101333.38;4918632;28;120040;-81
2022/07/15 00:23:40;;;;;;;6.80;1.70;;;;;;;19.01;54.14;101323.50;4928687;28;119976;-81
2022/07/15 00:26:08;;;;;;;5.47;1.20;;;;;;;18.93;54.14;101322.44;4920912;28;119775;-81
2022/07/15 00:28:34;;;;;;;6.87;1.50;;;;;;;18.97;54.51;101333.34;4914156;28;122853;-80
2022/07/15 00:31:00;;;;;;;7.20;1.45;;;;;;;18.94;54.57;101323.97;4928091;28;120111;-81
2022/07/15 00:33:26;;;;;;;7.83;1.40;;;;;;;18.92;54.45;101318.13;4924806;28;121004;-81
2022/07/15 00:35:51;;;;;;;8.93;1.50;;;;;;;18.97;54.13;101327.78;4925223;28;120090;-80
2022/07/15 00:38:17;;;;;;;7.13;1.37;;;;;;;19.01;55.15;101331.84;4914829;28;119760;-81
2022/07/15 00:40:46;;;;;;;7.20;1.37;;;;;;;19.00;54.94;101322.00;4929342;28;121130;-81
2022/07/15 00:43:13;;;;;;;6.40;1.33;;;;;;;18.97;54.95;101317.44;4912389;28;119979;-81
2022/07/15 00:45:38;;;;;;;8.55;1.52;;;;;;;19.02;54.84;101327.06;4926685;28;120491;-81
2022/07/15 00:48:05;;;;;;;9.13;1.30;;;;;;;18.92;55.09;101311.78;4945226;28;120207;-81
2022/07/15 00:50:31;;;;;;;9.63;1.65;;;;;;;19.02;55.22;101318.72;4930929;28;119758;-80
2022/07/15 00:53:02;;;;;;;7.93;1.70;;;;;;;18.99;55.58;101311.38;4931703;28;122080;-81
2022/07/15 00:55:45;;;;;;;6.88;1.20;;;;;;;19.05;56.05;101323.28;4907564;28;120686;-81
2022/07/15 00:58:16;;;;;;;6.33;1.53;;;;;;;19.08;55.96;101321.53;4929857;28;120175;-81
2022/07/15 01:00:43;;;;;;;10.27;1.70;;;;;;;19.06;54.89;101321.25;4909862;28;119923;-80
2022/07/15 01:03:09;;;;;;;6.40;1.45;;;;;;;19.02;54.83;101307.59;4912015;28;119898;-81
2022/07/15 01:05:38;;;;;;;6.10;1.40;;;;;;;18.99;54.77;101314.91;4909421;28;121120;-81
2022/07/15 01:08:04;;;;;;;7.20;1.30;;;;;;;19.08;54.66;101321.53;4929546;28;120072;-81
2022/07/15 01:11:06;;;;;;;7.53;1.42;;;;;;;19.04;55.04;101315.44;4919250;28;121458;-80
2022/07/15 01:13:59;;;;;;;7.13;1.37;;;;;;;19.02;55.00;101313.91;4925432;28;119750;-81
2022/07/15 01:16:26;;;;;;;7.30;1.48;;;;;;;19.15;55.32;101327.41;4924952;28;121321;-80
2022/07/15 01:18:52;;;;;;;10.07;1.70;;;;;;;19.18;54.90;101332.00;4924965;28;120353;-81
2022/07/15 01:21:20;;;;;;;6.97;1.40;;;;;;;19.13;54.77;101327.13;4912642;28;124419;-80
2022/07/15 01:23:47;;;;;;;6.30;1.30;;;;;;;19.18;54.52;101336.78;4909977;28;120621;-81
2022/07/15 01:26:33;;;;;;;9.48;2.08;;;;;;;19.11;55.05;101326.09;4922973;28;122564;-82
2022/07/15 01:29:02;;;;;;;6.63;1.40;;;;;;;19.11;54.95;101335.22;4925841;28;120722;-80
2022/07/15 01:31:28;;;;;;;6.28;1.55;;;;;;;19.06;54.60;101335.94;4905845;28;121892;-81
2022/07/15 01:34:07;;;;;;;7.13;1.52;;;;;;;19.01;54.33;101334.63;4909143;28;121215;-81
2022/07/15 01:36:34;;;;;;;6.85;1.63;;;;;;;18.99;54.71;101331.59;4923234;28;121537;-81
2022/07/15 01:39:01;;;;;;;6.33;1.27;;;;;;;18.95;54.69;101325.50;4906807;28;121260;-81
2022/07/15 01:41:27;;;;;;;8.18;1.60;;;;;;;18.93;54.58;101325.22;4921302;28;121284;-81
2022/07/15 01:43:53;;;;;;;6.20;1.40;;;;;;;18.97;54.85;101325.00;4912318;28;123334;-80
2022/07/15 01:46:19;;;;;;;6.83;1.67;;;;;;;18.92;54.26;101325.69;4923500;28;121264;-81
2022/07/15 01:51:54;;;;;;;6.13;1.45;;;;;;;18.86;54.29;101339.56;4906662;28;120835;-81
2022/07/15 01:54:25;;;;;;;7.03;1.40;;;;;;;18.85;54.53;101338.03;4907616;28;120684;-81
2022/07/15 01:56:54;;;;;;;5.93;1.30;;;;;;;18.81;54.42;101342.28;4931855;28;121139;-81
2022/07/15 01:59:24;;;;;;;6.40;1.75;;;;;;;18.81;54.62;101348.59;4923037;28;121105;-81
2022/07/15 02:01:52;;;;;;;9.07;1.40;;;;;;;18.82;54.53;101350.13;4929041;28;121813;-80
2022/07/15 02:04:19;;;;;;;8.60;1.60;;;;;;;18.78;54.43;101335.69;4930461;28;122936;-81
2022/07/15 02:06:45;;;;;;;6.50;1.30;;;;;;;18.80;54.71;101340.75;4934659;28;122133;-81
2022/07/15 02:09:13;;;;;;;7.75;1.65;;;;;;;18.83;54.46;101340.53;4922268;28;120550;-81
2022/07/15 02:11:42;;;;;;;9.25;1.50;;;;;;;18.88;54.10;101352.97;4904724;28;121696;-81
2022/07/15 02:14:11;;;;;;;7.87;1.33;;;;;;;18.87;53.60;101360.53;4906466;28;121671;-80
2022/07/15 02:16:38;;;;;;;5.03;1.02;;;;;;;18.79;52.96;101340.00;4913666;28;122944;-81
2022/07/15 02:19:08;;;;;;;6.40;1.60;;;;;;;18.83;52.70;101348.88;4926866;28;120074;-80
2022/07/15 02:21:35;;;;;;;6.93;1.40;;;;;;;18.85;53.24;101351.16;4894501;28;122936;-81
2022/07/15 02:24:01;;;;;;;8.30;1.70;;;;;;;18.84;52.72;101353.19;4924128;28;121125;-81
2022/07/15 02:26:27;;;;;;;7.38;1.40;;;;;;;18.85;53.38;101345.59;4925920;28;120039;-81
2022/07/15 02:28:55;;;;;;;5.00;1.60;;;;;;;18.81;52.68;101334.72;4913061;28;121356;-81
2022/07/15 02:31:22;;;;;;;6.35;1.30;;;;;;;18.81;53.00;101339.50;4899278;28;121632;-81
2022/07/15 02:33:49;;;;;;;7.90;1.60;;;;;;;18.88;53.27;101341.84;4926939;28;119936;-80
2022/07/15 02:36:14;;;;;;;6.88;1.52;;;;;;;18.83;52.86;101340.53;4926936;28;120129;-80
2022/07/15 02:38:41;;;;;;;8.70;1.50;;;;;;;18.86;53.17;101347.88;4927074;28;120066;-80
2022/07/15 02:41:09;;;;;;;9.20;1.63;;;;;;;18.84;52.64;101330.94;4920001;28;121980;-80
2022/07/15 02:43:36;;;;;;;5.65;1.23;;;;;;;18.86;53.22;101339.56;4903973;28;123676;-81
2022/07/15 02:46:02;;;;;;;6.57;1.30;;;;;;;18.79;53.11;101333.69;4926288;28;120116;-80
2022/07/15 02:48:29;;;;;;;7.05;1.30;;;;;;;18.85;53.39;101348.38;4913325;28;120294;-81
2022/07/15 02:50:55;;;;;;;7.00;1.40;;;;;;;18.85;53.71;101351.94;4926487;28;120316;-81
2022/07/15 02:53:25;;;;;;;6.90;1.50;;;;;;;18.84;53.52;101355.97;4917344;28;122149;-81
2022/07/15 02:55:51;;;;;;;6.97;1.60;;;;;;;18.79;53.77;101347.56;4908643;28;122390;-81
2022/07/15 02:58:16;;;;;;;8.18;1.90;;;;;;;18.77;53.68;101342.50;4893559;28;120529;-80
2022/07/15 03:00:43;;;;;;;7.75;1.45;;;;;;;18.73;54.09;101344.75;4893355;28;122267;-80
2022/07/15 03:03:08;;;;;;;7.80;1.80;;;;;;;18.67;54.28;101333.56;4908757;28;122049;-80
2022/07/15 03:05:37;;;;;;;5.07;1.33;;;;;;;18.71;54.57;101352.81;4893123;28;120330;-80
2022/07/15 03:08:02;;;;;;;9.10;1.60;;;;;;;18.76;54.51;101354.13;4908600;28;122891;-80
2022/07/15 03:10:28;;;;;;;5.80;1.30;;;;;;;18.72;54.60;101343.22;4923432;28;120516;-80
2022/07/15 03:12:54;;;;;;;9.10;1.50;;;;;;;18.73;54.80;101347.53;4910289;28;121830;-80
2022/07/15 03:15:21;;;;;;;9.27;1.70;;;;;;;18.77;54.62;101353.63;4907885;28;121781;-80
2022/07/15 03:17:47;;;;;;;7.83;1.50;;;;;;;18.71;54.82;101344.50;4919372;28;119606;-81
2022/07/15 03:20:12;;;;;;;6.03;1.33;;;;;;;18.75;54.76;101350.59;4916827;28;119608;-80
2022/07/15 03:22:45;;;;;;;9.35;1.40;;;;;;;18.78;54.29;101351.63;4927467;28;120856;-81
2022/07/15 03:25:11;;;;;;;8.97;1.30;;;;;;;18.77;54.53;101353.63;4908058;28;119664;-80
2022/07/15 03:27:37;;;;;;;6.20;1.40;;;;;;;18.74;54.35;101351.06;4926979;28;121280;-81
2022/07/15 03:30:05;;;;;;;7.90;1.48;;;;;;;18.65;53.95;101343.66;4925902;28;119929;-81
2022/07/15 03:32:31;;;;;;;7.10;1.33;;;;;;;18.74;54.38;101359.41;4928553;28;120561;-81
2022/07/15 03:34:57;;;;;;;6.63;1.58;;;;;;;18.70;54.13;101356.84;4924038;28;120665;-80
2022/07/15 03:37:25;;;;;;;7.88;1.67;;;;;;;18.83;53.20;101368.34;4906409;28;119931;-80
2022/07/15 03:39:51;;;;;;;5.55;1.27;;;;;;;18.85;53.61;101370.63;4924826;28;119779;-81
2022/07/15 03:42:17;;;;;;;5.60;1.27;;;;;;;18.87;53.43;101363.31;4923520;28;120275;-81
2022/07/15 03:44:43;;;;;;;4.68;1.10;;;;;;;18.91;52.45;101374.22;4927838;28;119646;-80
2022/07/15 03:47:09;;;;;;;5.93;1.45;;;;;;;18.93;53.15;101369.72;4901605;28;122081;-80
2022/07/15 03:49:35;;;;;;;5.45;1.60;;;;;;;18.98;52.29;101371.00;4927276;28;120180;-81
2022/07/15 03:52:01;;;;;;;6.38;1.27;;;;;;;18.95;51.76;101369.22;4920524;28;119765;-80
2022/07/15 03:54:27;;;;;;;6.23;1.27;;;;;;;19.02;51.46;101372.31;4912227;28;121838;-80
2022/07/15 03:56:52;;;;;;;6.90;1.30;;;;;;;18.99;51.61;101375.31;4903242;28;119699;-80
2022/07/15 03:59:22;;;;;;;6.07;1.37;;;;;;;19.06;51.02;101382.44;4927766;28;120102;-81
2022/07/15 04:01:49;;;;;;;6.30;1.53;;;;;;;19.04;51.92;101366.25;4919118;28;121525;-81
2022/07/15 04:04:18;;;;;;;7.30;1.40;;;;;;;19.12;50.32;101378.44;4911454;28;120204;-81
2022/07/15 04:06:44;;;;;;;4.85;1.30;;;;;;;19.13;50.15;101373.63;4943758;28;120601;-81
2022/07/15 04:09:12;;;;;;;5.80;1.33;;;;;;;19.15;50.22;101380.22;4910779;28;123040;-81
2022/07/15 04:11:42;;;;;;;7.00;1.40;;;;;;;19.21;51.00;101383.06;4917253;28;120038;-81
2022/07/15 04:14:13;;;;;;;4.60;1.20;;;;;;;19.26;49.91;101379.56;4912134;28;119878;-81
2022/07/15 04:16:42;;;;;;;7.10;1.70;;;;;;;19.20;49.88;101381.56;4914171;28;121460;-81
2022/07/15 04:19:21;;;;;;;5.85;1.33;;;;;;;19.22;50.27;101382.59;4909703;28;120244;-81
2022/07/15 04:21:46;;;;;;;6.75;1.48;;;;;;;19.31;49.39;101401.88;4917961;28;120487;-81
2022/07/15 04:24:18;;;;;;;4.93;1.23;;;;;;;19.26;49.75;101376.78;4912243;28;119868;-81
2022/07/15 04:26:44;;;;;;;4.63;1.00;;;;;;;19.37;48.86;101392.78;4910108;28;121869;-81
2022/07/15 04:29:10;;;;;;;5.30;1.00;;;;;;;19.40;49.57;101398.16;4907165;28;122743;-81
2022/07/15 04:31:35;;;;;;;3.53;0.87;;;;;;;19.36;49.22;101380.91;4910437;28;120355;-81
2022/07/15 04:34:49;;;;;;;5.55;1.20;;;;;;;19.32;48.89;101388.72;4887331;28;119706;-81
2022/07/15 04:37:14;;;;;;;5.40;1.00;;;;;;;19.32;49.66;101389.47;4886976;28;120849;-81
2022/07/15 04:39:46;;;;;;;3.97;1.10;;;;;;;19.40;49.53;101395.38;4858416;28;120078;-81
2022/07/15 04:42:13;;;;;;;5.55;1.10;;;;;;;19.47;48.84;101391.38;4870582;28;120159;-81
2022/07/15 04:44:42;;;;;;;5.80;1.15;;;;;;;19.61;48.56;101396.78;4862459;28;120359;-81
2022/07/15 04:47:08;;;;;;;4.85;1.00;;;;;;;19.63;47.85;101385.91;4864002;28;122250;-81
2022/07/15 04:52:25;;;;;;;4.60;0.90;;;;;;;19.83;48.07;101398.19;4893588;28;121448;-81
2022/07/15 04:54:53;;;;;;;5.13;1.10;;;;;;;19.87;47.79;101402.28;4894398;28;120135;-81
2022/07/15 04:57:20;;;;;;;4.50;0.90;;;;;;;19.86;48.08;101394.41;4884187;28;120596;-81
2022/07/15 04:59:46;;;;;;;4.75;0.80;;;;;;;19.89;47.33;101410.91;4878629;28;120106;-81
2022/07/15 05:02:16;;;;;;;4.88;0.90;;;;;;;19.85;48.05;101398.44;4892142;28;123102;-81
2022/07/15 05:04:46;;;;;;;6.03;1.10;;;;;;;19.83;47.44;101400.97;4909695;28;120733;-81
2022/07/15 05:07:13;;;;;;;4.20;1.05;;;;;;;19.81;47.88;101397.91;4928878;28;120298;-81
2022/07/15 05:09:40;;;;;;;4.97;1.00;;;;;;;19.85;47.61;101409.59;4913163;28;122738;-81
2022/07/15 05:12:06;;;;;;;3.90;0.90;;;;;;;19.91;48.38;101413.94;4889374;28;120895;-81
2022/07/15 05:14:40;;;;;;;4.78;1.17;;;;;;;19.90;48.18;101401.28;4909954;28;120343;-81
2022/07/15 05:17:09;;;;;;;4.15;1.23;;;;;;;19.93;47.47;101407.88;4878695;28;123503;-81
2022/07/15 05:19:36;;;;;;;6.47;1.40;;;;;;;19.98;48.45;101411.94;4879296;28;120397;-81
2022/07/15 05:22:06;;;;;;;4.32;0.90;;;;;;;19.93;47.62;101408.63;4899067;28;120426;-81
2022/07/15 05:24:32;;;;;;;4.68;0.82;;;;;;;19.96;47.34;101412.44;4923108;28;122146;-81
2022/07/15 05:27:00;;;;;;;4.50;0.98;;;;;;;20.04;47.81;101421.09;4897195;28;120296;-81
2022/07/15 05:29:31;;;;;;;3.05;0.80;;;;;;;20.06;47.61;101408.19;4913249;28;121935;-81
2022/07/15 05:31:56;;;;;;;3.53;0.90;;;;;;;20.03;47.17;101414.75;4926163;28;119875;-82
2022/07/15 05:34:22;;;;;;;5.80;1.20;;;;;;;20.15;47.71;101418.38;4911115;28;122828;-81
2022/07/15 05:36:50;;;;;;;4.87;1.00;;;;;;;20.26;46.52;101417.66;4911338;28;122801;-81
2022/07/15 05:39:17;;;;;;;3.88;1.00;;;;;;;20.47;46.96;101430.94;4930133;28;119955;-81
2022/07/15 05:41:46;;;;;;;5.15;1.20;;;;;;;20.53;44.91;101417.78;4927363;28;120113;-81
2022/07/15 05:44:12;;;;;;;3.45;1.08;;;;;;;20.62;45.88;101435.53;4900515;28;123632;-82
2022/07/15 05:46:43;;;;;;;5.13;1.00;;;;;;;20.61;45.28;101434.03;4894565;28;120698;-81
2022/07/15 05:49:14;;;;;;;4.28;1.30;;;;;;;20.59;45.30;101428.97;4928829;28;120785;-81
2022/07/15 05:51:39;;;;;;;4.25;1.00;;;;;;;20.70;45.88;101431.75;4962820;28;119748;-81
2022/07/15 05:54:06;;;;;;;3.23;1.07;;;;;;;20.76;46.46;101452.03;4946295;28;119846;-82
2022/07/15 05:56:32;;;;;;;3.90;1.00;;;;;;;20.78;44.99;101434.81;4911148;28;123437;-81
2022/07/15 05:58:58;;;;;;;3.20;1.10;;;;;;;20.86;45.94;101444.22;4911667;28;120067;-81
2022/07/15 06:01:29;;;;;;;4.80;1.08;;;;;;;20.86;45.81;101443.47;4926518;28;120337;-81
2022/07/15 06:03:54;;;;;;;4.27;1.10;;;;;;;20.92;46.24;101447.03;4925807;28;123710;-82
2022/07/15 06:06:21;;;;;;;4.65;0.82;;;;;;;20.82;45.16;101438.13;4931402;28;119684;-81
2022/07/15 06:08:48;;;;;;;4.93;1.33;;;;;;;20.77;44.59;101445.19;4917248;28;120259;-81
2022/07/15 06:11:14;;;;;;;5.13;1.07;;;;;;;20.77;45.10;101458.38;4939838;28;120149;-81
2022/07/15 06:13:42;;;;;;;6.17;1.20;;;;;;;20.67;45.31;101443.91;4910561;28;123352;-80
2022/07/15 06:16:09;;;;;;;4.82;1.30;;;;;;;20.71;45.85;101447.22;4908202;28;123832;-81
2022/07/15 06:18:34;;;;;;;1.93;0.93;;;;;;;20.76;46.00;101451.28;4926104;28;119890;-82
2022/07/15 06:21:02;;;;;;;4.47;0.93;;;;;;;20.80;45.55;101457.38;4928390;28;120227;-81
2022/07/15 06:23:27;;;;;;;6.15;1.25;;;;;;;20.94;46.02;101459.19;4928349;28;119996;-81
2022/07/15 06:25:55;;;;;;;5.03;1.07;;;;;;;20.96;44.97;101453.09;4940838;28;120091;-81
2022/07/15 06:28:21;;;;;;;4.40;0.90;;;;;;;20.95;44.30;101465.53;4924189;28;121664;-81
2022/07/15 06:30:47;;;;;;;5.35;1.13;;;;;;;20.96;43.19;101469.84;4910962;28;120116;-81
2022/07/15 06:33:12;;;;;;;5.23;0.87;;;;;;;20.77;43.42;101464.72;4910703;28;122307;-81
2022/07/15 06:35:38;;;;;;;4.13;1.00;;;;;;;20.65;43.62;101468.75;4907893;28;123006;-80
2022/07/15 06:38:04;;;;;;;4.97;1.10;;;;;;;20.56;44.84;101459.84;4928088;28;120685;-81
2022/07/15 06:40:29;;;;;;;3.27;1.00;;;;;;;20.44;45.09;101459.03;4929045;28;120191;-81
2022/07/15 06:42:55;;;;;;;4.50;1.10;;;;;;;20.51;45.59;101476.03;4909452;28;122888;-81
2022/07/15 06:45:26;;;;;;;4.22;0.98;;;;;;;20.58;45.70;101479.59;4909221;28;120280;-81
2022/07/15 06:47:51;;;;;;;4.80;0.93;;;;;;;20.66;46.32;101478.63;4934041;28;120065;-81
2022/07/15 06:50:19;;;;;;;4.77;1.00;;;;;;;20.69;45.86;101474.84;4927219;28;119906;-81
2022/07/15 06:52:45;;;;;;;3.47;1.10;;;;;;;20.86;44.88;101477.69;4945742;28;121858;-80
2022/07/15 06:55:11;;;;;;;3.07;1.10;;;;;;;20.94;45.33;101477.94;4910658;28;123278;-81
2022/07/15 06:57:39;;;;;;;4.55;1.13;;;;;;;21.02;44.47;101467.81;4927190;28;120224;-80
2022/07/15 07:00:06;;;;;;;4.10;1.10;;;;;;;21.05;44.74;101472.38;4911142;28;121694;-80
2022/07/15 07:02:34;;;;;;;4.57;1.10;;;;;;;21.10;44.65;101475.19;4911622;28;123402;-81
2022/07/15 07:05:01;;;;;;;4.77;1.10;;;;;;;21.22;44.22;101483.56;4925532;28;120038;-81
2022/07/15 07:07:28;;;;;;;5.10;1.08;;;;;;;21.18;43.83;101481.03;4907324;28;122940;-81
2022/07/15 07:09:54;;;;;;;4.75;1.00;;;;;;;21.27;44.58;101489.19;4929651;28;120392;-81
2022/07/15 07:12:19;;;;;;;4.70;1.15;;;;;;;21.26;44.40;101475.75;4906163;28;120398;-81
2022/07/15 07:14:48;;;;;;;4.65;1.10;;;;;;;21.40;44.47;101492.25;4919561;28;123894;-81
2022/07/15 07:17:16;;;;;;;6.40;1.23;;;;;;;21.39;42.82;101485.16;4911200;28;119751;-81
2022/07/15 07:19:42;;;;;;;4.00;1.13;;;;;;;21.28;43.02;101478.78;4910700;28;120203;-80
2022/07/15 07:22:08;;;;;;;4.70;1.13;;;;;;;21.29;43.30;101489.44;4920487;28;120560;-81
2022/07/15 07:24:33;;;;;;;5.22;1.05;;;;;;;21.32;44.51;101488.44;4926780;28;120237;-80
2022/07/15 07:26:59;;;;;;;4.33;0.93;;;;;;;21.45;44.19;101494.28;4927767;28;119910;-81
2022/07/15 07:29:25;;;;;;;5.00;1.27;;;;;;;21.53;43.20;101493.75;4922009;28;119952;-80
2022/07/15 07:31:52;;;;;;;3.85;0.93;;;;;;;21.47;42.45;101481.84;4935110;28;120235;-81
2022/07/15 07:34:18;;;;;;;3.90;1.10;;;;;;;21.56;44.26;101484.41;4928600;28;120496;-81
2022/07/15 07:36:45;;;;;;;3.93;0.80;;;;;;;21.55;42.52;101485.66;4910378;28;120653;-82
2022/07/15 07:39:12;;;;;;;4.63;1.03;;;;;;;21.53;42.62;101479.81;4941242;28;119936;-81
2022/07/15 07:41:37;;;;;;;4.55;1.08;;;;;;;21.58;42.98;101479.81;4911115;28;123294;-81
2022/07/15 07:44:03;;;;;;;5.07;1.03;;;;;;;21.63;43.47;101481.84;4911043;28;120013;-81
2022/07/15 07:46:29;;;;;;;4.30;1.10;;;;;;;21.74;43.60;101481.06;4914317;28;120003;-82
2022/07/15 07:48:55;;;;;;;5.65;1.15;;;;;;;21.70;43.06;101466.59;4924708;28;123543;-81
2022/07/15 07:51:21;;;;;;;5.40;1.13;;;;;;;21.67;43.11;101473.22;4894901;28;120223;-82
2022/07/15 07:53:47;;;;;;;4.50;1.15;;;;;;;21.75;43.25;101488.94;4924671;28;122365;-81
2022/07/15 07:56:42;;;;;;;4.20;1.00;;;;;;;21.78;43.60;101495.56;4848963;28;119930;-81
2022/07/15 07:59:09;;;;;;;4.25;0.90;;;;;;;21.70;43.58;101480.56;4856680;28;122022;-81
2022/07/15 08:01:34;;;;;;;3.15;1.00;;;;;;;21.79;43.91;101483.13;4845080;28;120280;-81
2022/07/15 08:04:14;;;;;;;2.53;0.80;;;;;;;21.70;42.72;101477.78;4862982;28;121309;-81
2022/07/15 08:06:40;;;;;;;4.30;0.98;;;;;;;21.66;43.81;101494.03;4849420;28;122268;-81
2022/07/15 08:09:06;;;;;;;4.70;1.00;;;;;;;21.56;44.29;101506.72;4848644;28;120266;-82
2022/07/15 08:11:33;;;;;;;5.13;1.30;;;;;;;21.44;45.43;101501.13;4847783;28;119889;-82
2022/07/15 08:13:59;;;;;;;5.83;1.30;;;;;;;21.41;45.83;101499.34;4848137;28;120375;-81
2022/07/15 08:16:25;;;;;;;6.10;1.10;;;;;;;21.53;46.24;101488.19;4829288;29;120492;-81
2022/07/15 08:18:50;;;;;;;6.63;1.30;;;;;;;21.68;45.71;101499.88;4847153;28;122363;-82
2022/07/15 08:21:16;;;;;;;5.88;1.20;;;;;;;21.84;46.81;101496.31;4832548;28;122985;-81
2022/07/15 08:23:41;;;;;;;5.28;1.15;;;;;;;21.99;45.62;101491.19;4851240;28;121410;-81
2022/07/15 08:26:10;;;;;;;5.25;1.30;;;;;;;22.07;44.63;101477.50;4833756;28;120990;-81
2022/07/15 08:28:36;;;;;;;4.43;0.80;;;;;;;22.26;44.88;101492.44;4836769;28;120461;-81
2022/07/15 08:31:02;;;;;;;4.20;0.80;;;;;;;22.34;43.52;101478.69;4830228;28;120187;-81
2022/07/15 08:33:28;;;;;;;2.30;0.80;;;;;;;22.52;43.40;101486.50;4884363;28;122544;-83
2022/07/15 08:35:55;;;;;;;3.33;1.10;;;;;;;22.53;42.61;101476.06;4922461;28;120652;-81
2022/07/15 08:38:20;;;;;;;3.83;0.70;;;;;;;22.66;42.33;101484.66;4932936;28;119833;-81
2022/07/15 08:40:46;;;;;;;2.17;0.60;;;;;;;22.71;42.33;101492.25;4913519;28;120266;-81
2022/07/15 08:43:15;;;;;;;2.83;0.70;;;;;;;22.77;41.63;101495.03;4930277;28;120347;-82
2022/07/15 08:45:43;;;;;;;2.40;0.50;;;;;;;22.83;41.56;101493.75;4929022;28;120072;-81
2022/07/15 08:48:12;;;;;;;2.97;0.45;;;;;;;22.83;40.22;101482.56;4930687;28;120223;-81
2022/07/15 08:50:41;;;;;;;2.38;0.50;;;;;;;22.87;40.99;101488.63;4928752;28;120647;-81
2022/07/15 08:53:06;;;;;;;0.90;0.40;;;;;;;22.86;40.76;101489.16;4936278;28;119629;-82
2022/07/15 08:55:32;;;;;;;2.00;0.68;;;;;;;22.77;40.22;101492.25;4919312;28;123411;-81
2022/07/15 08:57:58;;;;;;;1.52;0.40;;;;;;;22.67;41.47;101480.56;4917692;28;120206;-81
2022/07/15 09:00:46;;;;;;;2.53;0.55;;;;;;;22.66;41.56;101476.25;4905174;28;120543;-81
2022/07/15 09:03:13;;;;;;;4.15;0.88;;;;;;;22.70;42.92;101489.97;4913286;28;120515;-81
2022/07/15 09:05:38;;;;;;;1.70;0.50;;;;;;;22.78;41.58;101490.97;4913934;28;121404;-81
2022/07/15 09:08:16;;;;;;;1.00;0.40;;;;;;;22.88;41.46;101481.00;4924111;28;125474;-81
2022/07/15 09:10:55;;;;;;;2.20;0.77;;;;;;;23.08;39.78;101485.47;4910219;28;119926;-81
2022/07/15 09:13:23;;;;;;;1.77;0.60;;;;;;;23.10;39.48;101488.50;4929157;28;122521;-81
2022/07/15 09:15:50;;;;;;;2.03;0.52;;;;;;;22.96;40.92;101491.16;4926149;28;124358;-81
2022/07/15 09:18:19;;;;;;;1.30;0.50;;;;;;;22.88;40.90;101495.00;4925029;28;120373;-81
2022/07/15 09:20:45;;;;;;;3.03;0.60;;;;;;;22.87;40.39;101501.88;4916400;28;120524;-82
2022/07/15 09:23:18;;;;;;;2.03;0.67;;;;;;;23.07;41.25;101501.50;4916489;28;120097;-81
2022/07/15 09:25:44;;;;;;;4.00;0.80;;;;;;;23.35;40.41;101492.13;4939188;28;120587;-81
2022/07/15 09:28:09;;;;;;;1.70;0.57;;;;;;;23.62;40.16;101487.63;4933362;28;123280;-82
2022/07/15 09:33:34;;;;;;;2.63;0.70;;;;;;;24.00;38.85;101505.34;4910354;28;122969;-81
2022/07/15 09:36:22;;;;;;;3.70;0.70;;;;;;;23.74;38.96;101512.22;4924348;28;121657;-82
2022/07/15 09:38:49;;;;;;;3.78;0.85;;;;;;;23.44;39.89;101503.03;4925363;28;120158;-81
2022/07/15 09:41:27;;;;;;;1.45;0.60;;;;;;;23.20;40.59;101512.88;4912712;28;121868;-81
2022/07/15 09:43:57;;;;;;;3.63;0.80;;;;;;;22.90;40.80;101518.38;4926549;28;120440;-82
2022/07/15 09:46:26;;;;;;;3.87;0.70;;;;;;;22.69;41.52;101514.38;4924228;28;121696;-80
2022/07/15 09:48:52;;;;;;;5.35;0.80;;;;;;;22.59;42.05;101527.13;4928329;28;120220;-80
2022/07/15 09:51:19;;;;;;;4.40;1.00;;;;;;;22.59;42.90;101518.75;4928499;28;120726;-81
2022/07/15 09:53:49;;;;;;;4.10;0.90;;;;;;;22.66;44.07;101521.75;4912393;28;121614;-82
2022/07/15 09:56:23;;;;;;;4.80;0.90;;;;;;;22.67;43.13;101505.75;4912243;28;123041;-81
2022/07/15 09:58:49;;;;;;;3.60;0.93;;;;;;;22.59;41.70;101515.94;4945307;28;120689;-80
2022/07/15 10:01:15;;;;;;;3.50;0.80;;;;;;;22.37;42.24;101516.78;4925974;28;120061;-81
2022/07/15 10:03:41;;;;;;;4.82;0.90;;;;;;;22.20;43.49;101519.63;4925536;28;121093;-80
2022/07/15 10:06:09;;;;;;;4.13;0.75;;;;;;;22.05;44.13;101533.91;4959228;28;120339;-81
2022/07/15 10:08:35;;;;;;;3.20;1.02;;;;;;;21.86;44.86;101523.72;4942822;28;123138;-81
2022/07/15 10:11:08;;;;;;;7.53;1.17;;;;;;;21.85;45.31;101519.41;4912619;28;119883;-81
2022/07/15 10:13:53;;;;;;;6.15;1.08;;;;;;;21.96;45.89;101536.91;4938961;28;119844;-81
2022/07/15 10:16:37;;;;;;;3.45;0.88;;;;;;;22.19;44.44;101536.91;4927301;28;120650;-81
2022/07/15 10:19:37;;;;;;;3.72;0.70;;;;;;;22.35;43.91;101538.91;4912445;28;119621;-81
2022/07/15 10:22:31;;;;;;;4.90;0.95;;;;;;;22.48;42.58;101547.53;4909154;28;122521;-82
2022/07/15 10:25:20;;;;;;;2.45;0.70;;;;;;;22.51;42.98;101540.91;4912165;28;120371;-81
2022/07/15 10:27:56;;;;;;;3.30;0.80;;;;;;;22.51;41.27;101535.31;4912810;28;120054;-80
2022/07/15 10:30:24;;;;;;;2.90;0.80;;;;;;;22.45;41.90;101542.94;4905295;28;121913;-81
2022/07/15 10:33:06;;;;;;;3.00;0.77;;;;;;;22.45;40.79;101537.34;4911976;28;120289;-81
2022/07/15 10:35:33;;;;;;;3.45;0.68;;;;;;;22.48;41.36;101541.94;4926798;28;120443;-81
2022/07/15 10:38:34;;;;;;;4.50;1.00;;;;;;;22.53;41.57;101532.75;4939105;28;123130;-81
2022/07/15 10:41:06;;;;;;;4.30;0.98;;;;;;;22.68;43.17;101533.19;4941904;28;120516;-81
2022/07/15 10:43:48;;;;;;;4.07;1.20;;;;;;;22.84;41.60;101522.47;4941826;28;121010;-80
2022/07/15 10:46:17;;;;;;;3.65;0.80;;;;;;;22.96;42.51;101529.56;4923045;28;121767;-81
2022/07/15 10:48:58;;;;;;;4.20;1.05;;;;;;;23.11;42.14;101526.41;4905536;28;120758;-81
2022/07/15 10:51:36;;;;;;;4.55;0.90;;;;;;;23.30;43.25;101532.13;4943015;28;120163;-82
2022/07/15 10:54:17;;;;;;;4.18;1.00;;;;;;;23.48;41.30;101515.47;4934122;28;120629;-81
2022/07/15 10:56:48;;;;;;;3.20;0.80;;;;;;;23.49;41.43;101519.78;4941946;28;120530;-81
2022/07/15 10:59:19;;;;;;;4.15;1.30;;;;;;;23.41;42.17;101523.66;4925598;28;121779;-81
2022/07/15 11:01:48;;;;;;;4.97;1.40;;;;;;;23.30;42.58;101532.13;4940303;28;122358;-81
2022/07/15 11:04:19;;;;;;;4.75;1.10;;;;;;;23.22;43.35;101532.69;4938236;28;120096;-80
2022/07/15 11:07:07;;;;;;;3.67;1.00;;;;;;;23.09;43.47;101532.50;4922540;28;124454;-81
2022/07/15 11:10:06;;;;;;;4.37;1.33;;;;;;;22.85;43.59;101541.53;4941547;28;120397;-80
2022/07/15 11:12:31;;;;;;;5.57;1.17;;;;;;;22.72;44.26;101537.78;4925235;28;120770;-81
2022/07/15 11:15:00;;;;;;;4.63;1.10;;;;;;;22.67;43.82;101540.06;4941342;28;121354;-81
2022/07/15 11:17:31;;;;;;;4.80;1.13;;;;;;;22.67;43.22;101540.06;4911167;28;120355;-81
2022/07/15 11:20:00;;;;;;;4.07;1.10;;;;;;;22.67;44.26;101531.66;4926448;28;123804;-80
2022/07/15 11:22:28;;;;;;;6.07;1.27;;;;;;;22.73;43.36;101539.28;4914543;28;120398;-81
2022/07/15 11:24:55;;;;;;;5.18;1.15;;;;;;;22.85;43.20;101538.75;4919320;28;121927;-80
2022/07/15 11:27:23;;;;;;;5.07;1.13;;;;;;;22.90;43.09;101537.94;4926790;28;120820;-81
2022/07/15 11:30:02;;;;;;;5.32;1.17;;;;;;;22.89;43.32;101530.06;4924102;28;119887;-80
2022/07/15 11:32:31;;;;;;;4.25;1.15;;;;;;;22.96;43.06;101535.91;4892697;28;121399;-80
2022/07/15 11:34:59;;;;;;;5.30;1.00;;;;;;;23.09;43.97;101545.75;4925496;28;121447;-81